logo
Rechercher aéroport 
image banner adimage banner adimage banner ad
image banner ad

RCH16 - Far Eastern Memorial Hospital

Situé à New Taipei, Taiwan, Province of China

ICAO - , IATA -

Données fournies par Airmate  

Information générale

Coordonnées: N24°59'50" E121°27'12"
Élévation : 277 feet MSL.
Variation magnétique : -5° East
Voir autres Aéroports à Taipei (municipality)

Données opérationnelles

Special qualification required
Heure actuelle UTC:
Heure actuelle locale:
Météo à : RCSS - Taipei/Songshan ( 13 km )
METAR: RCSS 222330Z VRB02KT 9999 -DZ FEW005 BKN008 BKN012 25/23 Q1010 NOSIG RMK A2985
TAF: TAF RCSS 222300Z 2300/2324 09005KT 8000 FEW010 BKN032 TEMPO 2300/2306 30005KT 5000 RA FEW006 BKN011 TEMPO 2306/2310 28008KT TEMPO 2318/2324 4000 RA FEW008 BKN011
Voir NOTAMs / SUP AIP / TFR affectant cet aéroport [VIEW]
Fréquences de communication: [VIEW]

Pistes:

Coordonnées de l'aéroport

Adresse: New Taipei Taiwan, Province of China

Vue satellite de RCH16